sensor_id;sensor_type;location;lat;lon;timestamp;pressure;altitude;pressure_sealevel;temperature;humidity
74975;BME280;64061;50.836;19.138;2022-10-16T00:01:07;98649.13;;;22.27;57.42
74975;BME280;64061;50.836;19.138;2022-10-16T00:04:13;98650.75;;;22.28;57.27
74975;BME280;64061;50.836;19.138;2022-10-16T00:07:16;98659.00;;;22.28;57.14
74975;BME280;64061;50.836;19.138;2022-10-16T00:10:20;98653.50;;;22.28;56.96
74975;BME280;64061;50.836;19.138;2022-10-16T00:13:25;98650.44;;;22.29;56.98
74975;BME280;64061;50.836;19.138;2022-10-16T00:16:28;98650.44;;;22.29;56.81
74975;BME280;64061;50.836;19.138;2022-10-16T00:19:33;98656.78;;;22.30;56.69
74975;BME280;64061;50.836;19.138;2022-10-16T00:22:36;98651.78;;;22.32;56.56
74975;BME280;64061;50.836;19.138;2022-10-16T00:25:39;98656.47;;;22.31;56.51
74975;BME280;64061;50.836;19.138;2022-10-16T00:28:46;98653.44;;;22.33;56.39
74975;BME280;64061;50.836;19.138;2022-10-16T00:31:50;98647.41;;;22.31;56.61
74975;BME280;64061;50.836;19.138;2022-10-16T00:34:54;98649.03;;;22.32;56.32
74975;BME280;64061;50.836;19.138;2022-10-16T00:37:57;98650.69;;;22.33;56.25
74975;BME280;64061;50.836;19.138;2022-10-16T00:41:01;98652.91;;;22.31;56.25
74975;BME280;64061;50.836;19.138;2022-10-16T00:47:52;98666.13;;;22.29;56.87
74975;BME280;64061;50.836;19.138;2022-10-16T00:50:58;98663.91;;;22.31;56.25
74975;BME280;64061;50.836;19.138;2022-10-16T00:54:03;98670.22;;;22.31;56.17
74975;BME280;64061;50.836;19.138;2022-10-16T00:57:12;98667.75;;;22.30;56.24
74975;BME280;64061;50.836;19.138;2022-10-16T01:00:24;98663.09;;;22.30;56.25
74975;BME280;64061;50.836;19.138;2022-10-16T01:03:32;98669.41;;;22.31;56.02
74975;BME280;64061;50.836;19.138;2022-10-16T01:06:43;98665.53;;;22.32;56.22
74975;BME280;64061;50.836;19.138;2022-10-16T01:10:05;98674.59;;;22.32;56.19
74975;BME280;64061;50.836;19.138;2022-10-16T01:13:18;98667.25;;;22.28;55.98
74975;BME280;64061;50.836;19.138;2022-10-16T01:16:34;98668.56;;;22.30;56.25
74975;BME280;64061;50.836;19.138;2022-10-16T01:19:54;98673.25;;;22.30;56.45
74975;BME280;64061;50.836;19.138;2022-10-16T01:23:14;98677.13;;;22.29;56.53
74975;BME280;64061;50.836;19.138;2022-10-16T01:26:33;98666.94;;;22.29;56.15
74975;BME280;64061;50.836;19.138;2022-10-16T01:29:53;98664.50;;;22.28;56.21
74975;BME280;64061;50.836;19.138;2022-10-16T01:33:02;98661.22;;;22.26;56.30
74975;BME280;64061;50.836;19.138;2022-10-16T01:36:15;98672.22;;;22.26;56.27
74975;BME280;64061;50.836;19.138;2022-10-16T01:39:27;98672.22;;;22.26;56.12
74975;BME280;64061;50.836;19.138;2022-10-16T01:42:36;98672.22;;;22.26;56.44
74975;BME280;64061;50.836;19.138;2022-10-16T01:45:44;98670.00;;;22.28;56.45
74975;BME280;64061;50.836;19.138;2022-10-16T01:48:50;98664.50;;;22.28;56.37
74975;BME280;64061;50.836;19.138;2022-10-16T01:51:56;98667.75;;;22.30;56.53
74975;BME280;64061;50.836;19.138;2022-10-16T01:55:05;98673.25;;;22.30;56.49
74975;BME280;64061;50.836;19.138;2022-10-16T01:58:13;98675.47;;;22.28;56.62
74975;BME280;64061;50.836;19.138;2022-10-16T02:01:20;98674.91;;;22.31;56.35
74975;BME280;64061;50.836;19.138;2022-10-16T02:04:29;98681.50;;;22.30;56.17
74975;BME280;64061;50.836;19.138;2022-10-16T02:07:36;98673.56;;;22.28;56.31
74975;BME280;64061;50.836;19.138;2022-10-16T02:10:39;98673.25;;;22.30;55.97
74975;BME280;64061;50.836;19.138;2022-10-16T02:13:45;98668.56;;;22.30;56.45
74975;BME280;64061;50.836;19.138;2022-10-16T02:16:55;98676.31;;;22.28;56.10
74975;BME280;64061;50.836;19.138;2022-10-16T02:19:59;98675.47;;;22.28;55.90
74975;BME280;64061;50.836;19.138;2022-10-16T02:23:03;98678.22;;;22.28;56.20
74975;BME280;64061;50.836;19.138;2022-10-16T02:26:09;98685.38;;;22.29;56.01
74975;BME280;64061;50.836;19.138;2022-10-16T02:29:21;98680.97;;;22.28;56.26
74975;BME280;64061;50.836;19.138;2022-10-16T02:32:31;98674.38;;;22.29;56.36
74975;BME280;64061;50.836;19.138;2022-10-16T02:35:37;98672.75;;;22.28;56.43
74975;BME280;64061;50.836;19.138;2022-10-16T02:38:41;98688.41;;;22.27;56.46
74975;BME280;64061;50.836;19.138;2022-10-16T02:41:45;98696.94;;;22.26;56.17
74975;BME280;64061;50.836;19.138;2022-10-16T02:44:49;98689.81;;;22.25;56.23
74975;BME280;64061;50.836;19.138;2022-10-16T02:47:53;98697.75;;;22.26;56.09
74975;BME280;64061;50.836;19.138;2022-10-16T02:50:56;98705.19;;;22.26;56.17
74975;BME280;64061;50.836;19.138;2022-10-16T02:53:59;98703.56;;;22.25;56.16
74975;BME280;64061;50.836;19.138;2022-10-16T02:57:03;98711.81;;;22.25;56.34
74975;BME280;64061;50.836;19.138;2022-10-16T03:00:08;98710.69;;;22.26;56.07
74975;BME280;64061;50.836;19.138;2022-10-16T03:03:15;98709.88;;;22.25;56.14
74975;BME280;64061;50.836;19.138;2022-10-16T03:06:19;98716.19;;;22.26;56.11
74975;BME280;64061;50.836;19.138;2022-10-16T03:09:22;98712.31;;;22.27;56.14
74975;BME280;64061;50.836;19.138;2022-10-16T03:12:25;98711.50;;;22.26;56.14
74975;BME280;64061;50.836;19.138;2022-10-16T03:15:28;98713.44;;;22.26;56.21
74975;BME280;64061;50.836;19.138;2022-10-16T03:18:33;98716.72;;;22.28;56.31
74975;BME280;64061;50.836;19.138;2022-10-16T03:21:37;98709.56;;;22.27;56.36
74975;BME280;64061;50.836;19.138;2022-10-16T03:24:40;98713.97;;;22.28;56.40
74975;BME280;64061;50.836;19.138;2022-10-16T03:27:43;98718.63;;;22.27;56.03
74975;BME280;64061;50.836;19.138;2022-10-16T03:30:46;98712.31;;;22.27;56.05
74975;BME280;64061;50.836;19.138;2022-10-16T03:33:51;98730.44;;;22.28;56.25
74975;BME280;64061;50.836;19.138;2022-10-16T03:36:54;98729.63;;;22.27;55.99
74975;BME280;64061;50.836;19.138;2022-10-16T03:39:57;98724.94;;;22.28;55.98
74975;BME280;64061;50.836;19.138;2022-10-16T03:43:01;98737.56;;;22.29;55.83
74975;BME280;64061;50.836;19.138;2022-10-16T03:46:04;98727.69;;;22.28;55.86
74975;BME280;64061;50.836;19.138;2022-10-16T03:49:09;98732.91;;;22.29;55.96
74975;BME280;64061;50.836;19.138;2022-10-16T03:52:12;98732.09;;;22.29;55.87
74975;BME280;64061;50.836;19.138;2022-10-16T03:55:16;98736.47;;;22.30;55.89
74975;BME280;64061;50.836;19.138;2022-10-16T03:58:19;98742.78;;;22.30;55.91
74975;BME280;64061;50.836;19.138;2022-10-16T04:01:23;98732.31;;;22.32;56.10
74975;BME280;64061;50.836;19.138;2022-10-16T04:04:27;98742.19;;;22.33;55.90
74975;BME280;64061;50.836;19.138;2022-10-16T04:07:31;98739.75;;;22.32;55.93
74975;BME280;64061;50.836;19.138;2022-10-16T04:10:34;98739.75;;;22.32;55.83
74975;BME280;64061;50.836;19.138;2022-10-16T04:13:37;98750.72;;;22.32;56.00
74975;BME280;64061;50.836;19.138;2022-10-16T04:16:41;98746.06;;;22.32;56.08
74975;BME280;64061;50.836;19.138;2022-10-16T04:19:45;98733.13;;;22.33;55.73
74975;BME280;64061;50.836;19.138;2022-10-16T04:22:48;98739.44;;;22.33;55.87
74975;BME280;64061;50.836;19.138;2022-10-16T04:25:51;98743.00;;;22.34;55.97
74975;BME280;64061;50.836;19.138;2022-10-16T04:28:55;98735.59;;;22.34;55.84
74975;BME280;64061;50.836;19.138;2022-10-16T04:31:59;98747.41;;;22.35;56.08
74975;BME280;64061;50.836;19.138;2022-10-16T04:35:04;98745.16;;;22.37;56.29
74975;BME280;64061;50.836;19.138;2022-10-16T04:38:09;98733.34;;;22.36;56.17
74975;BME280;64061;50.836;19.138;2022-10-16T04:41:12;98736.91;;;22.37;56.01
74975;BME280;64061;50.836;19.138;2022-10-16T04:44:15;98744.34;;;22.36;56.04
74975;BME280;64061;50.836;19.138;2022-10-16T04:47:19;98746.28;;;22.36;56.13
74975;BME280;64061;50.836;19.138;2022-10-16T04:50:23;98737.72;;;22.37;55.95
74975;BME280;64061;50.836;19.138;2022-10-16T04:53:39;98738.03;;;22.36;55.96
74975;BME280;64061;50.836;19.138;2022-10-16T04:56:42;98742.41;;;22.37;55.90
74975;BME280;64061;50.836;19.138;2022-10-16T04:59:49;98738.03;;;22.36;55.87
74975;BME280;64061;50.836;19.138;2022-10-16T05:02:52;98723.78;;;22.34;55.69
74975;BME280;64061;50.836;19.138;2022-10-16T05:05:57;98737.50;;;22.34;55.60
74975;BME280;64061;50.836;19.138;2022-10-16T05:09:00;98738.63;;;22.33;55.73
74975;BME280;64061;50.836;19.138;2022-10-16T05:12:03;98742.19;;;22.33;55.68
74975;BME280;64061;50.836;19.138;2022-10-16T05:15:08;98745.75;;;22.34;55.52
74975;BME280;64061;50.836;19.138;2022-10-16T05:18:12;98748.22;;;22.35;55.74
74975;BME280;64061;50.836;19.138;2022-10-16T05:21:16;98756.16;;;22.37;55.83
74975;BME280;64061;50.836;19.138;2022-10-16T05:24:20;98758.59;;;22.38;55.84
74975;BME280;64061;50.836;19.138;2022-10-16T05:27:23;98758.28;;;22.40;55.46
74975;BME280;64061;50.836;19.138;2022-10-16T05:30:27;98764.59;;;22.40;54.79
74975;BME280;64061;50.836;19.138;2022-10-16T05:33:30;98761.03;;;22.40;55.28
74975;BME280;64061;50.836;19.138;2022-10-16T05:36:35;98767.59;;;22.44;55.34
74975;BME280;64061;50.836;19.138;2022-10-16T05:39:38;98776.34;;;22.46;55.19
74975;BME280;64061;50.836;19.138;2022-10-16T05:42:42;98776.88;;;22.48;55.30
74975;BME280;64061;50.836;19.138;2022-10-16T05:45:53;98780.63;;;22.52;55.08
74975;BME280;64061;50.836;19.138;2022-10-16T05:48:57;98780.16;;;22.50;55.24
74975;BME280;64061;50.836;19.138;2022-10-16T05:52:02;98783.91;;;22.54;55.21
74975;BME280;64061;50.836;19.138;2022-10-16T05:55:07;98788.31;;;22.55;55.13
74975;BME280;64061;50.836;19.138;2022-10-16T05:58:10;98795.97;;;22.58;55.03
74975;BME280;64061;50.836;19.138;2022-10-16T06:01:15;98798.13;;;22.61;54.93
74975;BME280;64061;50.836;19.138;2022-10-16T06:04:20;98806.06;;;22.63;54.64
74975;BME280;64061;50.836;19.138;2022-10-16T06:07:25;98800.78;;;22.66;54.81
74975;BME280;64061;50.836;19.138;2022-10-16T06:10:29;98803.53;;;22.66;54.63
74975;BME280;64061;50.836;19.138;2022-10-16T06:13:33;98814.22;;;22.68;54.54
74975;BME280;64061;50.836;19.138;2022-10-16T06:16:37;98809.53;;;22.68;54.58
74975;BME280;64061;50.836;19.138;2022-10-16T06:19:41;98810.06;;;22.70;54.34
74975;BME280;64061;50.836;19.138;2022-10-16T06:22:45;98811.09;;;22.74;54.48
74975;BME280;64061;50.836;19.138;2022-10-16T06:25:49;98811.94;;;22.75;54.48
74975;BME280;64061;50.836;19.138;2022-10-16T06:28:54;98811.66;;;22.77;54.57
74975;BME280;64061;50.836;19.138;2022-10-16T06:31:58;98813.78;;;22.80;54.45
74975;BME280;64061;50.836;19.138;2022-10-16T06:35:02;98824.44;;;22.86;54.24
74975;BME280;64061;50.836;19.138;2022-10-16T06:38:07;98827.91;;;22.92;54.35
74975;BME280;64061;50.836;19.138;2022-10-16T06:41:12;98824.56;;;22.95;54.11
74975;BME280;64061;50.836;19.138;2022-10-16T06:44:18;98820.69;;;22.96;54.09
74975;BME280;64061;50.836;19.138;2022-10-16T06:47:21;98820.09;;;22.99;53.57
74975;BME280;64061;50.836;19.138;2022-10-16T06:50:24;98834.38;;;23.01;53.62
74975;BME280;64061;50.836;19.138;2022-10-16T06:53:31;98841.41;;;23.07;53.37
74975;BME280;64061;50.836;19.138;2022-10-16T06:56:45;98848.53;;;23.08;53.16
74975;BME280;64061;50.836;19.138;2022-10-16T06:59:48;98850.63;;;23.16;52.92
74975;BME280;64061;50.836;19.138;2022-10-16T07:02:56;98854.31;;;23.25;53.31
74975;BME280;64061;50.836;19.138;2022-10-16T07:06:02;98861.28;;;23.36;53.22
74975;BME280;64061;50.836;19.138;2022-10-16T07:09:09;98866.41;;;23.43;52.72
74975;BME280;64061;50.836;19.138;2022-10-16T07:12:13;98869.56;;;23.50;52.60
74975;BME280;64061;50.836;19.138;2022-10-16T07:15:17;98867.56;;;23.56;52.82
74975;BME280;64061;50.836;19.138;2022-10-16T07:18:20;98872.38;;;23.64;52.82
74975;BME280;64061;50.836;19.138;2022-10-16T07:21:29;98870.66;;;23.68;53.03
74975;BME280;64061;50.836;19.138;2022-10-16T07:24:39;98868.41;;;23.70;53.45
74975;BME280;64061;50.836;19.138;2022-10-16T07:27:42;98868.59;;;23.73;53.32
74975;BME280;64061;50.836;19.138;2022-10-16T07:30:45;98881.16;;;23.79;53.49
74975;BME280;64061;50.836;19.138;2022-10-16T07:33:49;98883.00;;;23.84;54.04
74975;BME280;64061;50.836;19.138;2022-10-16T07:36:55;98881.19;;;23.93;54.19
74975;BME280;64061;50.836;19.138;2022-10-16T07:40:00;98887.09;;;24.00;54.29
74975;BME280;64061;50.836;19.138;2022-10-16T07:43:03;98883.22;;;24.01;53.38
74975;BME280;64061;50.836;19.138;2022-10-16T07:46:07;98888.41;;;24.03;52.19
74975;BME280;64061;50.836;19.138;2022-10-16T07:49:10;98897.13;;;24.10;51.47
74975;BME280;64061;50.836;19.138;2022-10-16T07:52:14;98891.19;;;24.16;51.91
74975;BME280;64061;50.836;19.138;2022-10-16T07:55:18;98897.94;;;24.24;51.82
74975;BME280;64061;50.836;19.138;2022-10-16T07:58:22;98898.44;;;24.26;51.79
74975;BME280;64061;50.836;19.138;2022-10-16T08:01:25;98906.41;;;24.28;51.54
74975;BME280;64061;50.836;19.138;2022-10-16T08:04:29;98908.88;;;24.29;52.41
74975;BME280;64061;50.836;19.138;2022-10-16T08:07:32;98903.34;;;24.29;52.41
74975;BME280;64061;50.836;19.138;2022-10-16T08:10:37;98901.94;;;24.32;52.57
74975;BME280;64061;50.836;19.138;2022-10-16T08:13:40;98910.81;;;24.29;52.42
74975;BME280;64061;50.836;19.138;2022-10-16T08:16:43;98900.28;;;24.31;52.32
74975;BME280;64061;50.836;19.138;2022-10-16T08:19:47;98900.81;;;24.33;52.52
74975;BME280;64061;50.836;19.138;2022-10-16T08:22:50;98896.19;;;24.42;52.30
74975;BME280;64061;50.836;19.138;2022-10-16T08:25:56;98899.38;;;24.49;51.21
74975;BME280;64061;50.836;19.138;2022-10-16T08:29:08;98906.50;;;24.50;51.44
74975;BME280;64061;50.836;19.138;2022-10-16T08:32:12;98903.41;;;24.51;50.97
74975;BME280;64061;50.836;19.138;2022-10-16T08:35:16;98905.25;;;24.56;50.82
74975;BME280;64061;50.836;19.138;2022-10-16T08:38:20;98906.91;;;24.57;50.28
74975;BME280;64061;50.836;19.138;2022-10-16T08:41:37;98919.78;;;24.62;49.87
74975;BME280;64061;50.836;19.138;2022-10-16T08:45:34;98912.78;;;24.64;50.06
74975;BME280;64061;50.836;19.138;2022-10-16T08:48:54;98920.06;;;24.60;49.96
74975;BME280;64061;50.836;19.138;2022-10-16T08:52:01;98926.09;;;24.62;49.32
74975;BME280;64061;50.836;19.138;2022-10-16T08:55:05;98932.63;;;24.66;49.57
74975;BME280;64061;50.836;19.138;2022-10-16T08:58:16;98921.47;;;24.71;49.46
74975;BME280;64061;50.836;19.138;2022-10-16T09:01:22;98920.88;;;24.74;49.51
74975;BME280;64061;50.836;19.138;2022-10-16T09:04:51;98915.72;;;24.81;49.13
74975;BME280;64061;50.836;19.138;2022-10-16T09:08:04;98922.06;;;24.82;49.48
74975;BME280;64061;50.836;19.138;2022-10-16T09:11:22;98917.06;;;24.84;49.20
74975;BME280;64061;50.836;19.138;2022-10-16T09:14:50;98926.06;;;24.90;49.16
74975;BME280;64061;50.836;19.138;2022-10-16T09:18:10;98926.44;;;24.97;49.21
74975;BME280;64061;50.836;19.138;2022-10-16T09:21:21;98926.81;;;25.04;49.05
74975;BME280;64061;50.836;19.138;2022-10-16T09:24:30;98928.91;;;24.98;48.29
74975;BME280;64061;50.836;19.138;2022-10-16T09:27:33;98936.38;;;24.98;48.92
74975;BME280;64061;50.836;19.138;2022-10-16T09:30:38;98930.34;;;24.96;48.92
74975;BME280;64061;50.836;19.138;2022-10-16T09:33:42;98928.69;;;24.95;48.89
74975;BME280;64061;50.836;19.138;2022-10-16T09:36:48;98941.38;;;24.96;49.41
74975;BME280;64061;50.836;19.138;2022-10-16T09:39:53;98934.22;;;24.95;49.67
74975;BME280;64061;50.836;19.138;2022-10-16T09:43:02;98943.63;;;24.94;49.01
74975;BME280;64061;50.836;19.138;2022-10-16T09:46:27;98939.34;;;24.88;49.29
74975;BME280;64061;50.836;19.138;2022-10-16T09:49:32;98947.22;;;24.80;49.32
74975;BME280;64061;50.836;19.138;2022-10-16T09:52:35;98946.22;;;24.76;49.17
74975;BME280;64061;50.836;19.138;2022-10-16T09:55:48;98935.66;;;24.78;48.65
74975;BME280;64061;50.836;19.138;2022-10-16T09:58:53;98939.66;;;24.72;48.56
74975;BME280;64061;50.836;19.138;2022-10-16T10:02:04;98948.47;;;24.74;48.51
74975;BME280;64061;50.836;19.138;2022-10-16T10:05:19;98946.31;;;24.71;48.66
74975;BME280;64061;50.836;19.138;2022-10-16T10:08:24;98938.34;;;24.70;48.72
74975;BME280;64061;50.836;19.138;2022-10-16T10:11:44;98935.78;;;24.73;48.45
74975;BME280;64061;50.836;19.138;2022-10-16T10:14:53;98948.03;;;24.67;48.39
74975;BME280;64061;50.836;19.138;2022-10-16T10:18:00;98942.22;;;24.69;48.27
74975;BME280;64061;50.836;19.138;2022-10-16T10:21:05;98940.28;;;24.69;48.65
74975;BME280;64061;50.836;19.138;2022-10-16T10:24:10;98944.97;;;24.69;47.90
74975;BME280;64061;50.836;19.138;2022-10-16T10:27:16;98935.06;;;24.68;48.45
74975;BME280;64061;50.836;19.138;2022-10-16T10:30:24;98926.28;;;24.66;48.20
74975;BME280;64061;50.836;19.138;2022-10-16T10:33:41;98931.50;;;24.67;48.10
74975;BME280;64061;50.836;19.138;2022-10-16T10:36:53;98929.69;;;24.63;48.01
74975;BME280;64061;50.836;19.138;2022-10-16T10:40:11;98923.34;;;24.62;48.05
74975;BME280;64061;50.836;19.138;2022-10-16T10:43:45;98922.84;;;24.60;47.68
74975;BME280;64061;50.836;19.138;2022-10-16T10:47:07;98935.50;;;24.61;47.78
74975;BME280;64061;50.836;19.138;2022-10-16T10:50:25;98938.25;;;24.61;47.83
74975;BME280;64061;50.836;19.138;2022-10-16T10:53:40;98937.13;;;24.62;47.81
74975;BME280;64061;50.836;19.138;2022-10-16T10:56:56;98928.34;;;24.60;47.79
74975;BME280;64061;50.836;19.138;2022-10-16T11:00:13;98930.00;;;24.61;48.25
74975;BME280;64061;50.836;19.138;2022-10-16T11:03:34;98936.63;;;24.60;48.07
74975;BME280;64061;50.836;19.138;2022-10-16T11:06:50;98935.28;;;24.58;48.03
74975;BME280;64061;50.836;19.138;2022-10-16T11:10:05;98952.66;;;24.58;47.57
74975;BME280;64061;50.836;19.138;2022-10-16T11:13:23;98943.56;;;24.58;47.89
74975;BME280;64061;50.836;19.138;2022-10-16T11:16:37;98953.78;;;24.57;47.66
74975;BME280;64061;50.836;19.138;2022-10-16T11:19:46;98952.16;;;24.56;47.81
74975;BME280;64061;50.836;19.138;2022-10-16T11:23:02;98954.91;;;24.56;47.60
74975;BME280;64061;50.836;19.138;2022-10-16T11:26:18;98949.50;;;24.51;48.15
74975;BME280;64061;50.836;19.138;2022-10-16T11:29:27;98949.50;;;24.51;47.85
74975;BME280;64061;50.836;19.138;2022-10-16T11:32:47;98942.84;;;24.52;47.89
74975;BME280;64061;50.836;19.138;2022-10-16T11:36:01;98940.72;;;24.49;47.79
74975;BME280;64061;50.836;19.138;2022-10-16T11:39:19;98931.34;;;24.50;47.16
74975;BME280;64061;50.836;19.138;2022-10-16T11:42:29;98944.31;;;24.49;47.52
74975;BME280;64061;50.836;19.138;2022-10-16T11:45:42;98940.22;;;24.47;47.41
74975;BME280;64061;50.836;19.138;2022-10-16T11:48:54;98946.25;;;24.49;47.55
74975;BME280;64061;50.836;19.138;2022-10-16T11:52:07;98940.72;;;24.49;47.63
74975;BME280;64061;50.836;19.138;2022-10-16T11:55:25;98953.72;;;24.48;47.37
74975;BME280;64061;50.836;19.138;2022-10-16T11:58:39;98952.88;;;24.48;47.67
74975;BME280;64061;50.836;19.138;2022-10-16T12:01:53;98939.47;;;24.55;47.43
74975;BME280;64061;50.836;19.138;2022-10-16T12:05:20;98948.88;;;24.54;47.39
74975;BME280;64061;50.836;19.138;2022-10-16T12:08:28;98969.63;;;24.51;47.68
74975;BME280;64061;50.836;19.138;2022-10-16T12:11:36;98961.03;;;24.53;47.81
74975;BME280;64061;50.836;19.138;2022-10-16T12:14:41;98951.44;;;24.50;48.68
74975;BME280;64061;50.836;19.138;2022-10-16T12:18:07;98960.34;;;24.47;49.09
74975;BME280;64061;50.836;19.138;2022-10-16T12:21:30;98957.88;;;24.46;49.44
74975;BME280;64061;50.836;19.138;2022-10-16T12:24:36;98957.38;;;24.44;49.66
74975;BME280;64061;50.836;19.138;2022-10-16T12:27:42;98959.31;;;24.43;49.18
74975;BME280;64061;50.836;19.138;2022-10-16T12:30:53;98962.88;;;24.44;49.43
74975;BME280;64061;50.836;19.138;2022-10-16T12:34:02;98954.72;;;24.39;49.27
74975;BME280;64061;50.836;19.138;2022-10-16T12:37:13;98961.84;;;24.40;49.61
74975;BME280;64061;50.836;19.138;2022-10-16T12:40:28;98966.56;;;24.39;49.84
74975;BME280;64061;50.836;19.138;2022-10-16T12:43:40;98964.09;;;24.38;49.24
74975;BME280;64061;50.836;19.138;2022-10-16T12:46:45;98973.31;;;24.33;49.06
74975;BME280;64061;50.836;19.138;2022-10-16T12:49:49;98972.19;;;24.34;48.86
74975;BME280;64061;50.836;19.138;2022-10-16T12:52:54;98966.16;;;24.32;48.56
74975;BME280;64061;50.836;19.138;2022-10-16T12:56:04;98975.75;;;24.35;48.87
74975;BME280;64061;50.836;19.138;2022-10-16T12:59:30;98962.28;;;24.33;48.57
74975;BME280;64061;50.836;19.138;2022-10-16T13:02:56;98971.38;;;24.34;49.19
74975;BME280;64061;50.836;19.138;2022-10-16T13:06:34;98966.16;;;24.32;49.15
74975;BME280;64061;50.836;19.138;2022-10-16T13:09:56;98960.03;;;24.35;49.41
74975;BME280;64061;50.836;19.138;2022-10-16T13:13:33;98966.38;;;24.36;49.06
74975;BME280;64061;50.836;19.138;2022-10-16T13:16:58;98963.50;;;24.27;49.04
74975;BME280;64061;50.836;19.138;2022-10-16T13:20:20;98966.63;;;24.21;49.06
74975;BME280;64061;50.836;19.138;2022-10-16T13:23:33;98959.28;;;24.16;49.26
74975;BME280;64061;50.836;19.138;2022-10-16T13:26:50;98969.19;;;24.17;49.45
74975;BME280;64061;50.836;19.138;2022-10-16T13:30:02;98972.25;;;24.15;49.24
74975;BME280;64061;50.836;19.138;2022-10-16T13:33:18;98959.56;;;24.14;48.42
74975;BME280;64061;50.836;19.138;2022-10-16T13:36:30;98945.28;;;24.12;48.71
74975;BME280;64061;50.836;19.138;2022-10-16T13:39:38;98955.19;;;24.13;48.97
74975;BME280;64061;50.836;19.138;2022-10-16T13:42:42;98963.97;;;24.15;49.02
74975;BME280;64061;50.836;19.138;2022-10-16T13:45:56;98971.03;;;24.22;48.65
74975;BME280;64061;50.836;19.138;2022-10-16T13:49:04;98978.78;;;24.20;49.07
74975;BME280;64061;50.836;19.138;2022-10-16T13:52:17;98975.72;;;24.21;48.70
74975;BME280;64061;50.836;19.138;2022-10-16T13:55:22;98976.63;;;24.16;48.47
74975;BME280;64061;50.836;19.138;2022-10-16T13:58:26;98975.81;;;24.16;48.71
74975;BME280;64061;50.836;19.138;2022-10-16T14:01:31;98987.34;;;24.18;48.15
74975;BME280;64061;50.836;19.138;2022-10-16T14:04:39;98997.56;;;24.17;48.08
74975;BME280;64061;50.836;19.138;2022-10-16T14:07:43;99009.50;;;24.13;47.94
74975;BME280;64061;50.836;19.138;2022-10-16T14:10:53;99006.53;;;24.09;47.75
74975;BME280;64061;50.836;19.138;2022-10-16T14:13:59;99005.22;;;24.07;47.84
74975;BME280;64061;50.836;19.138;2022-10-16T14:17:06;99014.31;;;24.07;47.63
74975;BME280;64061;50.836;19.138;2022-10-16T14:20:18;99017.34;;;24.06;47.94
74975;BME280;64061;50.836;19.138;2022-10-16T14:23:30;99009.91;;;24.06;47.84
74975;BME280;64061;50.836;19.138;2022-10-16T14:26:41;98997.75;;;24.07;47.45
74975;BME280;64061;50.836;19.138;2022-10-16T14:30:05;98996.94;;;24.07;47.55
74975;BME280;64061;50.836;19.138;2022-10-16T14:33:21;99015.41;;;24.06;47.77
74975;BME280;64061;50.836;19.138;2022-10-16T14:36:28;99001.63;;;24.06;47.93
74975;BME280;64061;50.836;19.138;2022-10-16T14:39:33;99004.41;;;24.06;47.68
74975;BME280;64061;50.836;19.138;2022-10-16T14:42:37;99016.75;;;24.09;47.82
74975;BME280;64061;50.836;19.138;2022-10-16T14:45:41;99013.66;;;24.10;47.43
74975;BME280;64061;50.836;19.138;2022-10-16T14:48:48;99010.63;;;24.12;47.45
74975;BME280;64061;50.836;19.138;2022-10-16T14:51:55;99016.94;;;24.12;47.63
74975;BME280;64061;50.836;19.138;2022-10-16T14:54:59;99004.28;;;24.11;48.01
74975;BME280;64061;50.836;19.138;2022-10-16T14:58:02;99009.78;;;24.11;47.81
74975;BME280;64061;50.836;19.138;2022-10-16T15:01:07;99020.00;;;24.11;47.94
74975;BME280;64061;50.836;19.138;2022-10-16T15:04:12;99019.81;;;24.07;48.12
74975;BME280;64061;50.836;19.138;2022-10-16T15:07:18;99026.97;;;24.08;48.32
74975;BME280;64061;50.836;19.138;2022-10-16T15:10:24;99031.13;;;24.06;48.08
74975;BME280;64061;50.836;19.138;2022-10-16T15:13:30;99024.28;;;24.03;47.79
74975;BME280;64061;50.836;19.138;2022-10-16T15:16:33;99022.66;;;24.02;48.25
74975;BME280;64061;50.836;19.138;2022-10-16T15:19:37;99024.88;;;24.00;48.34
74975;BME280;64061;50.836;19.138;2022-10-16T15:22:42;99028.47;;;24.01;48.67
74975;BME280;64061;50.836;19.138;2022-10-16T15:25:47;99038.13;;;23.98;48.67
74975;BME280;64061;50.836;19.138;2022-10-16T15:28:52;99023.88;;;23.96;48.65
74975;BME280;64061;50.836;19.138;2022-10-16T15:31:56;99033.25;;;23.95;48.84
74975;BME280;64061;50.836;19.138;2022-10-16T15:34:59;99041.81;;;23.94;48.82
74975;BME280;64061;50.836;19.138;2022-10-16T15:38:04;99051.22;;;23.93;49.05
74975;BME280;64061;50.836;19.138;2022-10-16T15:41:07;99052.63;;;23.90;49.13
74975;BME280;64061;50.836;19.138;2022-10-16T15:44:11;99053.22;;;23.87;49.16
74975;BME280;64061;50.836;19.138;2022-10-16T15:47:16;99059.31;;;23.84;49.37
74975;BME280;64061;50.836;19.138;2022-10-16T15:50:22;99051.38;;;23.83;49.73
74975;BME280;64061;50.836;19.138;2022-10-16T15:53:28;99056.91;;;23.83;49.81
74975;BME280;64061;50.836;19.138;2022-10-16T15:56:31;99068.22;;;23.81;49.71
74975;BME280;64061;50.836;19.138;2022-10-16T15:59:35;99067.69;;;23.79;49.87
74975;BME280;64061;50.836;19.138;2022-10-16T16:02:39;99071.56;;;23.78;50.04
74975;BME280;64061;50.836;19.138;2022-10-16T16:05:43;99072.97;;;23.75;49.87
74975;BME280;64061;50.836;19.138;2022-10-16T16:08:49;99080.41;;;23.75;49.65
74975;BME280;64061;50.836;19.138;2022-10-16T16:11:52;99079.38;;;23.71;49.99
74975;BME280;64061;50.836;19.138;2022-10-16T16:14:55;99084.38;;;23.69;50.27
74975;BME280;64061;50.836;19.138;2022-10-16T16:18:04;99085.78;;;23.66;50.32
74975;BME280;64061;50.836;19.138;2022-10-16T16:21:10;99077.81;;;23.65;50.28
74975;BME280;64061;50.836;19.138;2022-10-16T16:24:16;99088.31;;;23.63;50.67
74975;BME280;64061;50.836;19.138;2022-10-16T16:27:19;99080.66;;;23.60;50.65